Terminal Aerodrome Forecast
Issued by NWS

Home | Current Version | Previous Version | Text Only | Print | Product List | Glossary On
Versions: 1 2 3 4 5 6 7 8 9 10 11 12 13 14 15 16 17 18 19 20 21
368
FTUS44 KLIX 182348
TAFGPT
TAF
KGPT 182348Z 1900/1924 13007KT 3SM BR SCT003 BKN015 OVC021
     FM190100 14005KT 1SM BR VV003
     FM190500 14005KT 1/4SM FG VV002
     FM191600 17007KT 1SM BR VCSH OVC005
     FM191800 17007KT P6SM VCSH OVC008
     FM192100 21007KT P6SM VCSH OVC015=

USA.gov is the U.S. government's official web portal to all federal, state and local government web resources and services.